sensor_id;sensor_type;location;lat;lon;timestamp;P1;durP1;ratioP1;P2;durP2;ratioP2
80936;SDS011;70395;51.382;7.074;2023-08-12T00:00:28;28.70;;;25.70;;
80936;SDS011;70395;51.382;7.074;2023-08-12T00:02:54;29.20;;;25.40;;
80936;SDS011;70395;51.382;7.074;2023-08-12T00:05:20;26.83;;;21.87;;
80936;SDS011;70395;51.382;7.074;2023-08-12T00:07:47;28.00;;;25.07;;
80936;SDS011;70395;51.382;7.074;2023-08-12T00:10:14;31.13;;;27.87;;
80936;SDS011;70395;51.382;7.074;2023-08-12T00:12:40;26.73;;;21.17;;
80936;SDS011;70395;51.382;7.074;2023-08-12T00:15:06;25.30;;;22.60;;
80936;SDS011;70395;51.382;7.074;2023-08-12T00:17:35;26.80;;;23.93;;
80936;SDS011;70395;51.382;7.074;2023-08-12T00:20:02;31.00;;;27.80;;
80936;SDS011;70395;51.382;7.074;2023-08-12T00:22:35;29.87;;;26.87;;
80936;SDS011;70395;51.382;7.074;2023-08-12T00:25:02;31.33;;;28.20;;
80936;SDS011;70395;51.382;7.074;2023-08-12T00:27:28;29.50;;;26.00;;
80936;SDS011;70395;51.382;7.074;2023-08-12T00:29:54;29.17;;;26.10;;
80936;SDS011;70395;51.382;7.074;2023-08-12T00:32:19;27.50;;;24.70;;
80936;SDS011;70395;51.382;7.074;2023-08-12T00:34:45;29.03;;;26.00;;
80936;SDS011;70395;51.382;7.074;2023-08-12T00:37:11;33.00;;;29.00;;
80936;SDS011;70395;51.382;7.074;2023-08-12T00:39:37;32.70;;;28.93;;
80936;SDS011;70395;51.382;7.074;2023-08-12T00:42:02;30.50;;;27.20;;
80936;SDS011;70395;51.382;7.074;2023-08-12T00:44:28;29.33;;;26.13;;
80936;SDS011;70395;51.382;7.074;2023-08-12T00:46:54;30.77;;;27.40;;
80936;SDS011;70395;51.382;7.074;2023-08-12T00:49:21;28.67;;;25.60;;
80936;SDS011;70395;51.382;7.074;2023-08-12T00:51:49;32.93;;;27.73;;
80936;SDS011;70395;51.382;7.074;2023-08-12T00:54:17;26.30;;;23.50;;
80936;SDS011;70395;51.382;7.074;2023-08-12T00:56:48;30.87;;;27.20;;
80936;SDS011;70395;51.382;7.074;2023-08-12T00:59:15;27.97;;;25.00;;
80936;SDS011;70395;51.382;7.074;2023-08-12T01:01:42;31.47;;;28.17;;
80936;SDS011;70395;51.382;7.074;2023-08-12T01:04:09;31.23;;;27.03;;
80936;SDS011;70395;51.382;7.074;2023-08-12T01:06:35;27.70;;;24.80;;
80936;SDS011;70395;51.382;7.074;2023-08-12T01:09:07;30.10;;;26.03;;
80936;SDS011;70395;51.382;7.074;2023-08-12T01:12:12;28.87;;;24.67;;
80936;SDS011;70395;51.382;7.074;2023-08-12T01:17:21;22.87;;;20.47;;
80936;SDS011;70395;51.382;7.074;2023-08-12T01:19:47;21.10;;;18.97;;
80936;SDS011;70395;51.382;7.074;2023-08-12T01:22:15;18.80;;;16.83;;
80936;SDS011;70395;51.382;7.074;2023-08-12T01:24:45;22.47;;;17.87;;
80936;SDS011;70395;51.382;7.074;2023-08-12T01:27:11;15.97;;;14.30;;
80936;SDS011;70395;51.382;7.074;2023-08-12T01:29:39;15.60;;;13.90;;
80936;SDS011;70395;51.382;7.074;2023-08-12T01:37:44;16.10;;;14.47;;
80936;SDS011;70395;51.382;7.074;2023-08-12T01:40:15;17.37;;;15.40;;
80936;SDS011;70395;51.382;7.074;2023-08-12T01:42:42;18.80;;;16.10;;
80936;SDS011;70395;51.382;7.074;2023-08-12T01:45:09;17.43;;;15.03;;
80936;SDS011;70395;51.382;7.074;2023-08-12T01:47:36;18.80;;;16.93;;
80936;SDS011;70395;51.382;7.074;2023-08-12T01:50:02;13.93;;;10.80;;
80936;SDS011;70395;51.382;7.074;2023-08-12T01:52:28;12.80;;;11.50;;
80936;SDS011;70395;51.382;7.074;2023-08-12T01:54:54;14.67;;;13.17;;
80936;SDS011;70395;51.382;7.074;2023-08-12T01:57:20;14.13;;;12.70;;
80936;SDS011;70395;51.382;7.074;2023-08-12T01:59:46;16.80;;;14.23;;
80936;SDS011;70395;51.382;7.074;2023-08-12T02:02:12;15.67;;;12.97;;
80936;SDS011;70395;51.382;7.074;2023-08-12T02:04:39;13.87;;;12.50;;
80936;SDS011;70395;51.382;7.074;2023-08-12T02:07:07;14.17;;;12.77;;
80936;SDS011;70395;51.382;7.074;2023-08-12T02:09:33;14.87;;;13.37;;
80936;SDS011;70395;51.382;7.074;2023-08-12T02:11:59;16.97;;;14.93;;
80936;SDS011;70395;51.382;7.074;2023-08-12T02:14:25;16.47;;;14.63;;
80936;SDS011;70395;51.382;7.074;2023-08-12T02:16:50;18.07;;;16.47;;
80936;SDS011;70395;51.382;7.074;2023-08-12T02:19:16;16.73;;;15.13;;
80936;SDS011;70395;51.382;7.074;2023-08-12T02:21:42;15.93;;;14.43;;
80936;SDS011;70395;51.382;7.074;2023-08-12T02:24:09;17.07;;;15.27;;
80936;SDS011;70395;51.382;7.074;2023-08-12T02:26:34;16.50;;;14.77;;
80936;SDS011;70395;51.382;7.074;2023-08-12T02:29:02;21.27;;;16.17;;
80936;SDS011;70395;51.382;7.074;2023-08-12T02:31:28;17.80;;;15.90;;
80936;SDS011;70395;51.382;7.074;2023-08-12T02:33:54;16.00;;;14.27;;
80936;SDS011;70395;51.382;7.074;2023-08-12T02:36:19;16.60;;;14.90;;
80936;SDS011;70395;51.382;7.074;2023-08-12T02:38:45;16.77;;;14.97;;
80936;SDS011;70395;51.382;7.074;2023-08-12T02:41:11;18.47;;;16.47;;
80936;SDS011;70395;51.382;7.074;2023-08-12T02:43:36;15.93;;;14.33;;
80936;SDS011;70395;51.382;7.074;2023-08-12T02:46:02;15.70;;;14.10;;
80936;SDS011;70395;51.382;7.074;2023-08-12T02:48:28;18.37;;;16.47;;
80936;SDS011;70395;51.382;7.074;2023-08-12T02:50:54;19.40;;;17.23;;
80936;SDS011;70395;51.382;7.074;2023-08-12T02:53:19;19.60;;;17.60;;
80936;SDS011;70395;51.382;7.074;2023-08-12T02:55:45;19.20;;;17.27;;
80936;SDS011;70395;51.382;7.074;2023-08-12T02:58:11;23.20;;;17.70;;
80936;SDS011;70395;51.382;7.074;2023-08-12T03:00:40;20.60;;;17.77;;
80936;SDS011;70395;51.382;7.074;2023-08-12T03:03:08;19.33;;;17.03;;
80936;SDS011;70395;51.382;7.074;2023-08-12T03:05:35;20.10;;;18.00;;
80936;SDS011;70395;51.382;7.074;2023-08-12T03:08:02;19.97;;;17.93;;
80936;SDS011;70395;51.382;7.074;2023-08-12T03:10:29;18.00;;;16.30;;
80936;SDS011;70395;51.382;7.074;2023-08-12T03:12:55;20.83;;;18.83;;
80936;SDS011;70395;51.382;7.074;2023-08-12T03:15:21;18.40;;;16.60;;
80936;SDS011;70395;51.382;7.074;2023-08-12T03:17:47;16.83;;;15.13;;
80936;SDS011;70395;51.382;7.074;2023-08-12T03:20:13;15.83;;;14.13;;
80936;SDS011;70395;51.382;7.074;2023-08-12T03:22:39;15.87;;;14.20;;
80936;SDS011;70395;51.382;7.074;2023-08-12T03:25:05;14.53;;;13.07;;
80936;SDS011;70395;51.382;7.074;2023-08-12T03:27:31;15.60;;;13.97;;
80936;SDS011;70395;51.382;7.074;2023-08-12T03:29:57;21.37;;;15.13;;
80936;SDS011;70395;51.382;7.074;2023-08-12T03:32:23;17.40;;;15.60;;
80936;SDS011;70395;51.382;7.074;2023-08-12T03:34:50;14.10;;;12.60;;
80936;SDS011;70395;51.382;7.074;2023-08-12T03:37:17;15.97;;;13.27;;
80936;SDS011;70395;51.382;7.074;2023-08-12T03:39:44;15.90;;;14.40;;
80936;SDS011;70395;51.382;7.074;2023-08-12T03:42:09;15.80;;;14.03;;
80936;SDS011;70395;51.382;7.074;2023-08-12T03:44:35;15.77;;;13.97;;
80936;SDS011;70395;51.382;7.074;2023-08-12T03:47:01;14.13;;;12.63;;
80936;SDS011;70395;51.382;7.074;2023-08-12T03:49:27;15.67;;;13.27;;
80936;SDS011;70395;51.382;7.074;2023-08-12T03:51:53;13.63;;;11.77;;
80936;SDS011;70395;51.382;7.074;2023-08-12T03:54:19;13.97;;;12.53;;
80936;SDS011;70395;51.382;7.074;2023-08-12T03:56:44;15.57;;;13.80;;
80936;SDS011;70395;51.382;7.074;2023-08-12T03:59:10;16.07;;;14.40;;
80936;SDS011;70395;51.382;7.074;2023-08-12T04:01:36;13.37;;;11.37;;
80936;SDS011;70395;51.382;7.074;2023-08-12T04:04:02;15.80;;;13.17;;
80936;SDS011;70395;51.382;7.074;2023-08-12T04:06:28;18.20;;;11.47;;
80936;SDS011;70395;51.382;7.074;2023-08-12T04:08:54;10.47;;;8.53;;
80936;SDS011;70395;51.382;7.074;2023-08-12T04:11:20;15.57;;;13.80;;
80936;SDS011;70395;51.382;7.074;2023-08-12T04:13:46;11.90;;;10.73;;
80936;SDS011;70395;51.382;7.074;2023-08-12T04:16:12;13.33;;;11.77;;
80936;SDS011;70395;51.382;7.074;2023-08-12T04:18:37;13.03;;;11.27;;
80936;SDS011;70395;51.382;7.074;2023-08-12T04:21:03;13.83;;;12.40;;
80936;SDS011;70395;51.382;7.074;2023-08-12T04:23:29;11.83;;;10.43;;
80936;SDS011;70395;51.382;7.074;2023-08-12T04:25:55;13.40;;;12.17;;
80936;SDS011;70395;51.382;7.074;2023-08-12T04:28:20;13.93;;;11.50;;
80936;SDS011;70395;51.382;7.074;2023-08-12T04:30:47;11.53;;;10.33;;
80936;SDS011;70395;51.382;7.074;2023-08-12T04:33:16;11.13;;;10.10;;
80936;SDS011;70395;51.382;7.074;2023-08-12T04:35:41;11.23;;;10.13;;
80936;SDS011;70395;51.382;7.074;2023-08-12T04:38:07;11.20;;;10.13;;
80936;SDS011;70395;51.382;7.074;2023-08-12T04:40:33;13.20;;;11.80;;
80936;SDS011;70395;51.382;7.074;2023-08-12T04:42:59;10.80;;;9.47;;
80936;SDS011;70395;51.382;7.074;2023-08-12T04:45:25;10.20;;;8.53;;
80936;SDS011;70395;51.382;7.074;2023-08-12T04:47:51;11.17;;;9.77;;
80936;SDS011;70395;51.382;7.074;2023-08-12T04:50:17;10.30;;;9.30;;
80936;SDS011;70395;51.382;7.074;2023-08-12T04:52:43;10.07;;;9.17;;
80936;SDS011;70395;51.382;7.074;2023-08-12T04:55:09;10.83;;;9.83;;
80936;SDS011;70395;51.382;7.074;2023-08-12T04:57:38;11.77;;;9.53;;
80936;SDS011;70395;51.382;7.074;2023-08-12T05:00:04;9.93;;;8.70;;
80936;SDS011;70395;51.382;7.074;2023-08-12T05:02:33;10.63;;;9.37;;
80936;SDS011;70395;51.382;7.074;2023-08-12T05:04:59;13.10;;;9.33;;
80936;SDS011;70395;51.382;7.074;2023-08-12T05:07:26;10.50;;;8.27;;
80936;SDS011;70395;51.382;7.074;2023-08-12T05:09:52;10.23;;;9.23;;
80936;SDS011;70395;51.382;7.074;2023-08-12T05:12:18;8.67;;;7.47;;
80936;SDS011;70395;51.382;7.074;2023-08-12T05:14:44;9.90;;;9.00;;
80936;SDS011;70395;51.382;7.074;2023-08-12T05:17:10;13.23;;;9.83;;
80936;SDS011;70395;51.382;7.074;2023-08-12T05:19:35;9.23;;;8.27;;
80936;SDS011;70395;51.382;7.074;2023-08-12T05:22:01;10.17;;;9.17;;
80936;SDS011;70395;51.382;7.074;2023-08-12T05:24:27;11.60;;;8.30;;
80936;SDS011;70395;51.382;7.074;2023-08-12T05:26:53;8.43;;;7.37;;
80936;SDS011;70395;51.382;7.074;2023-08-12T05:29:19;10.30;;;8.60;;
80936;SDS011;70395;51.382;7.074;2023-08-12T05:31:45;8.37;;;7.57;;
80936;SDS011;70395;51.382;7.074;2023-08-12T05:34:10;8.33;;;7.60;;
80936;SDS011;70395;51.382;7.074;2023-08-12T05:36:36;12.63;;;9.30;;
80936;SDS011;70395;51.382;7.074;2023-08-12T05:39:02;9.90;;;8.87;;
80936;SDS011;70395;51.382;7.074;2023-08-12T05:41:28;9.30;;;8.40;;
80936;SDS011;70395;51.382;7.074;2023-08-12T05:43:54;9.93;;;7.80;;
80936;SDS011;70395;51.382;7.074;2023-08-12T05:46:20;8.97;;;8.03;;
80936;SDS011;70395;51.382;7.074;2023-08-12T05:48:46;8.17;;;7.37;;
80936;SDS011;70395;51.382;7.074;2023-08-12T05:51:12;8.20;;;7.40;;
80936;SDS011;70395;51.382;7.074;2023-08-12T05:53:37;7.83;;;6.83;;
80936;SDS011;70395;51.382;7.074;2023-08-12T05:56:03;7.87;;;6.80;;
80936;SDS011;70395;51.382;7.074;2023-08-12T05:58:30;9.13;;;7.10;;
80936;SDS011;70395;51.382;7.074;2023-08-12T06:00:55;7.80;;;7.10;;
80936;SDS011;70395;51.382;7.074;2023-08-12T06:03:21;7.37;;;6.53;;
80936;SDS011;70395;51.382;7.074;2023-08-12T06:05:47;8.63;;;7.10;;
80936;SDS011;70395;51.382;7.074;2023-08-12T06:08:13;7.90;;;6.60;;
80936;SDS011;70395;51.382;7.074;2023-08-12T06:10:40;8.03;;;7.10;;
80936;SDS011;70395;51.382;7.074;2023-08-12T06:13:06;12.70;;;8.03;;
80936;SDS011;70395;51.382;7.074;2023-08-12T06:15:32;14.33;;;6.87;;
80936;SDS011;70395;51.382;7.074;2023-08-12T06:17:58;15.40;;;6.93;;
80936;SDS011;70395;51.382;7.074;2023-08-12T06:20:25;9.17;;;6.23;;
80936;SDS011;70395;51.382;7.074;2023-08-12T06:22:51;11.90;;;7.10;;
80936;SDS011;70395;51.382;7.074;2023-08-12T06:25:17;8.50;;;7.40;;
80936;SDS011;70395;51.382;7.074;2023-08-12T06:27:45;10.10;;;6.43;;
80936;SDS011;70395;51.382;7.074;2023-08-12T06:30:12;6.37;;;5.87;;
80936;SDS011;70395;51.382;7.074;2023-08-12T06:32:39;6.43;;;5.83;;
80936;SDS011;70395;51.382;7.074;2023-08-12T06:35:05;10.57;;;5.23;;
80936;SDS011;70395;51.382;7.074;2023-08-12T06:37:32;8.57;;;5.50;;
80936;SDS011;70395;51.382;7.074;2023-08-12T06:39:57;6.40;;;5.80;;
80936;SDS011;70395;51.382;7.074;2023-08-12T06:42:23;8.23;;;5.47;;
80936;SDS011;70395;51.382;7.074;2023-08-12T06:44:58;6.80;;;5.57;;
80936;SDS011;70395;51.382;7.074;2023-08-12T06:47:25;6.70;;;5.10;;
80936;SDS011;70395;51.382;7.074;2023-08-12T06:49:52;6.60;;;5.50;;
80936;SDS011;70395;51.382;7.074;2023-08-12T06:52:18;5.57;;;5.07;;
80936;SDS011;70395;51.382;7.074;2023-08-12T06:54:44;6.80;;;5.47;;
80936;SDS011;70395;51.382;7.074;2023-08-12T06:57:10;6.73;;;5.30;;
80936;SDS011;70395;51.382;7.074;2023-08-12T06:59:37;5.57;;;5.07;;
80936;SDS011;70395;51.382;7.074;2023-08-12T07:02:03;5.43;;;4.93;;
80936;SDS011;70395;51.382;7.074;2023-08-12T07:04:31;6.60;;;6.00;;
80936;SDS011;70395;51.382;7.074;2023-08-12T07:06:57;6.53;;;5.73;;
80936;SDS011;70395;51.382;7.074;2023-08-12T07:09:23;5.90;;;5.30;;
80936;SDS011;70395;51.382;7.074;2023-08-12T07:11:49;5.73;;;4.87;;
80936;SDS011;70395;51.382;7.074;2023-08-12T07:14:15;5.17;;;4.67;;
80936;SDS011;70395;51.382;7.074;2023-08-12T07:16:41;5.23;;;4.73;;
80936;SDS011;70395;51.382;7.074;2023-08-12T07:19:06;6.17;;;5.67;;
80936;SDS011;70395;51.382;7.074;2023-08-12T07:21:32;4.97;;;4.53;;
80936;SDS011;70395;51.382;7.074;2023-08-12T07:23:58;5.37;;;4.97;;
80936;SDS011;70395;51.382;7.074;2023-08-12T07:26:24;6.33;;;4.60;;
80936;SDS011;70395;51.382;7.074;2023-08-12T07:28:50;5.80;;;4.73;;
80936;SDS011;70395;51.382;7.074;2023-08-12T07:31:15;5.53;;;4.63;;
80936;SDS011;70395;51.382;7.074;2023-08-12T07:33:42;5.37;;;4.27;;
80936;SDS011;70395;51.382;7.074;2023-08-12T07:36:08;5.50;;;4.20;;
80936;SDS011;70395;51.382;7.074;2023-08-12T07:38:33;5.47;;;5.07;;
80936;SDS011;70395;51.382;7.074;2023-08-12T07:40:59;7.43;;;5.07;;
80936;SDS011;70395;51.382;7.074;2023-08-12T07:43:25;4.37;;;3.97;;
80936;SDS011;70395;51.382;7.074;2023-08-12T07:45:52;4.97;;;4.60;;
80936;SDS011;70395;51.382;7.074;2023-08-12T07:48:19;5.30;;;4.80;;
80936;SDS011;70395;51.382;7.074;2023-08-12T07:50:46;5.20;;;4.73;;
80936;SDS011;70395;51.382;7.074;2023-08-12T07:53:15;5.40;;;4.90;;
80936;SDS011;70395;51.382;7.074;2023-08-12T07:55:41;6.13;;;5.53;;
80936;SDS011;70395;51.382;7.074;2023-08-12T07:58:07;5.23;;;4.40;;
80936;SDS011;70395;51.382;7.074;2023-08-12T08:00:33;7.13;;;4.93;;
80936;SDS011;70395;51.382;7.074;2023-08-12T08:02:59;5.87;;;5.00;;
80936;SDS011;70395;51.382;7.074;2023-08-12T08:05:25;6.20;;;5.70;;
80936;SDS011;70395;51.382;7.074;2023-08-12T08:07:51;6.90;;;6.30;;
80936;SDS011;70395;51.382;7.074;2023-08-12T08:10:16;6.00;;;5.50;;
80936;SDS011;70395;51.382;7.074;2023-08-12T08:12:42;7.10;;;5.77;;
80936;SDS011;70395;51.382;7.074;2023-08-12T08:15:08;6.00;;;5.50;;
80936;SDS011;70395;51.382;7.074;2023-08-12T08:17:34;6.50;;;5.93;;
80936;SDS011;70395;51.382;7.074;2023-08-12T08:20:00;6.13;;;5.53;;
80936;SDS011;70395;51.382;7.074;2023-08-12T08:22:26;6.57;;;5.90;;
80936;SDS011;70395;51.382;7.074;2023-08-12T08:24:51;6.70;;;6.10;;
80936;SDS011;70395;51.382;7.074;2023-08-12T08:27:17;6.93;;;6.30;;
80936;SDS011;70395;51.382;7.074;2023-08-12T08:29:43;6.80;;;6.20;;
80936;SDS011;70395;51.382;7.074;2023-08-12T08:32:09;6.03;;;5.43;;
80936;SDS011;70395;51.382;7.074;2023-08-12T08:34:34;7.70;;;6.10;;
80936;SDS011;70395;51.382;7.074;2023-08-12T08:37:00;6.97;;;6.30;;
80936;SDS011;70395;51.382;7.074;2023-08-12T08:39:26;6.37;;;5.77;;
80936;SDS011;70395;51.382;7.074;2023-08-12T08:41:52;6.10;;;5.60;;
80936;SDS011;70395;51.382;7.074;2023-08-12T08:44:21;5.50;;;4.87;;
80936;SDS011;70395;51.382;7.074;2023-08-12T08:46:51;5.50;;;5.10;;
80936;SDS011;70395;51.382;7.074;2023-08-12T08:49:21;6.23;;;5.73;;
80936;SDS011;70395;51.382;7.074;2023-08-12T08:51:48;6.60;;;6.10;;
80936;SDS011;70395;51.382;7.074;2023-08-12T08:54:16;5.97;;;5.37;;
80936;SDS011;70395;51.382;7.074;2023-08-12T08:56:43;6.27;;;5.67;;
80936;SDS011;70395;51.382;7.074;2023-08-12T08:59:09;5.23;;;4.77;;
80936;SDS011;70395;51.382;7.074;2023-08-12T09:01:35;5.27;;;4.77;;
80936;SDS011;70395;51.382;7.074;2023-08-12T09:04:03;6.03;;;5.53;;
80936;SDS011;70395;51.382;7.074;2023-08-12T09:06:30;5.10;;;4.70;;
80936;SDS011;70395;51.382;7.074;2023-08-12T09:08:58;6.20;;;5.03;;
80936;SDS011;70395;51.382;7.074;2023-08-12T09:11:27;7.30;;;5.00;;
80936;SDS011;70395;51.382;7.074;2023-08-12T09:13:55;4.80;;;4.50;;
80936;SDS011;70395;51.382;7.074;2023-08-12T09:16:21;4.93;;;4.23;;
80936;SDS011;70395;51.382;7.074;2023-08-12T09:18:46;4.67;;;4.10;;
80936;SDS011;70395;51.382;7.074;2023-08-12T09:21:18;4.30;;;3.90;;
80936;SDS011;70395;51.382;7.074;2023-08-12T09:23:45;3.77;;;3.47;;
80936;SDS011;70395;51.382;7.074;2023-08-12T09:26:18;5.07;;;3.93;;
80936;SDS011;70395;51.382;7.074;2023-08-12T09:28:45;3.87;;;3.47;;
80936;SDS011;70395;51.382;7.074;2023-08-12T09:31:26;4.63;;;3.50;;
80936;SDS011;70395;51.382;7.074;2023-08-12T09:34:13;4.23;;;3.57;;
80936;SDS011;70395;51.382;7.074;2023-08-12T09:36:38;3.47;;;3.17;;
80936;SDS011;70395;51.382;7.074;2023-08-12T09:39:06;4.00;;;3.70;;
80936;SDS011;70395;51.382;7.074;2023-08-12T09:41:37;3.60;;;3.30;;
80936;SDS011;70395;51.382;7.074;2023-08-12T09:44:04;3.47;;;3.17;;
80936;SDS011;70395;51.382;7.074;2023-08-12T09:46:32;4.00;;;3.30;;
80936;SDS011;70395;51.382;7.074;2023-08-12T09:48:58;3.50;;;2.73;;
80936;SDS011;70395;51.382;7.074;2023-08-12T09:51:24;3.60;;;2.80;;
80936;SDS011;70395;51.382;7.074;2023-08-12T09:53:51;3.13;;;2.50;;
80936;SDS011;70395;51.382;7.074;2023-08-12T09:56:18;2.73;;;2.37;;
80936;SDS011;70395;51.382;7.074;2023-08-12T09:58:48;2.80;;;2.07;;
80936;SDS011;70395;51.382;7.074;2023-08-12T10:01:18;3.90;;;2.60;;
80936;SDS011;70395;51.382;7.074;2023-08-12T10:03:48;3.60;;;2.50;;
80936;SDS011;70395;51.382;7.074;2023-08-12T10:06:18;2.40;;;2.20;;
80936;SDS011;70395;51.382;7.074;2023-08-12T10:08:46;2.60;;;1.93;;
80936;SDS011;70395;51.382;7.074;2023-08-12T10:11:12;2.90;;;2.60;;
80936;SDS011;70395;51.382;7.074;2023-08-12T10:13:40;2.60;;;2.20;;
80936;SDS011;70395;51.382;7.074;2023-08-12T10:16:06;2.03;;;1.60;;
80936;SDS011;70395;51.382;7.074;2023-08-12T10:18:34;2.40;;;2.00;;
80936;SDS011;70395;51.382;7.074;2023-08-12T10:21:04;2.33;;;1.87;;
80936;SDS011;70395;51.382;7.074;2023-08-12T10:23:34;2.60;;;2.00;;
80936;SDS011;70395;51.382;7.074;2023-08-12T10:26:00;2.00;;;1.53;;
80936;SDS011;70395;51.382;7.074;2023-08-12T10:28:30;2.20;;;1.80;;
80936;SDS011;70395;51.382;7.074;2023-08-12T10:31:01;3.83;;;1.90;;
80936;SDS011;70395;51.382;7.074;2023-08-12T10:33:30;2.80;;;2.13;;
80936;SDS011;70395;51.382;7.074;2023-08-12T10:36:01;1.93;;;1.50;;
80936;SDS011;70395;51.382;7.074;2023-08-12T10:38:28;2.83;;;1.73;;
80936;SDS011;70395;51.382;7.074;2023-08-12T10:41:03;2.27;;;1.80;;
80936;SDS011;70395;51.382;7.074;2023-08-12T10:43:53;2.90;;;1.77;;
80936;SDS011;70395;51.382;7.074;2023-08-12T10:46:32;3.33;;;2.00;;
80936;SDS011;70395;51.382;7.074;2023-08-12T10:51:43;2.13;;;1.47;;
80936;SDS011;70395;51.382;7.074;2023-08-12T10:54:24;1.40;;;1.30;;
80936;SDS011;70395;51.382;7.074;2023-08-12T11:05:00;2.27;;;1.70;;
80936;SDS011;70395;51.382;7.074;2023-08-12T11:10:22;1.70;;;1.30;;
80936;SDS011;70395;51.382;7.074;2023-08-12T11:15:17;1.60;;;1.30;;
80936;SDS011;70395;51.382;7.074;2023-08-12T11:17:59;2.77;;;1.20;;
80936;SDS011;70395;51.382;7.074;2023-08-12T11:20:49;1.27;;;0.87;;
80936;SDS011;70395;51.382;7.074;2023-08-12T11:23:15;1.73;;;0.87;;
80936;SDS011;70395;51.382;7.074;2023-08-12T11:25:42;2.13;;;0.80;;
80936;SDS011;70395;51.382;7.074;2023-08-12T11:28:09;0.97;;;0.80;;
80936;SDS011;70395;51.382;7.074;2023-08-12T11:30:35;1.10;;;0.90;;
80936;SDS011;70395;51.382;7.074;2023-08-12T11:33:01;3.40;;;0.90;;
80936;SDS011;70395;51.382;7.074;2023-08-12T11:35:28;1.20;;;0.93;;
80936;SDS011;70395;51.382;7.074;2023-08-12T11:37:55;1.83;;;0.90;;
80936;SDS011;70395;51.382;7.074;2023-08-12T11:40:24;1.63;;;0.97;;
80936;SDS011;70395;51.382;7.074;2023-08-12T11:42:52;2.47;;;1.00;;
80936;SDS011;70395;51.382;7.074;2023-08-12T11:45:20;1.93;;;0.80;;
80936;SDS011;70395;51.382;7.074;2023-08-12T11:47:50;1.20;;;0.90;;
80936;SDS011;70395;51.382;7.074;2023-08-12T11:50:20;1.40;;;0.90;;
80936;SDS011;70395;51.382;7.074;2023-08-12T11:52:49;2.50;;;1.23;;
80936;SDS011;70395;51.382;7.074;2023-08-12T11:55:17;3.20;;;1.00;;
80936;SDS011;70395;51.382;7.074;2023-08-12T11:57:43;2.90;;;1.10;;
80936;SDS011;70395;51.382;7.074;2023-08-12T12:00:11;1.53;;;1.17;;
80936;SDS011;70395;51.382;7.074;2023-08-12T12:02:56;1.20;;;0.87;;
80936;SDS011;70395;51.382;7.074;2023-08-12T12:05:23;1.53;;;1.10;;
80936;SDS011;70395;51.382;7.074;2023-08-12T12:07:52;1.53;;;1.30;;
80936;SDS011;70395;51.382;7.074;2023-08-12T12:12:56;2.07;;;0.90;;
80936;SDS011;70395;51.382;7.074;2023-08-12T12:15:22;2.30;;;1.20;;
80936;SDS011;70395;51.382;7.074;2023-08-12T12:17:51;1.40;;;0.97;;
80936;SDS011;70395;51.382;7.074;2023-08-12T12:20:17;2.57;;;0.90;;
80936;SDS011;70395;51.382;7.074;2023-08-12T12:22:45;1.83;;;1.20;;
80936;SDS011;70395;51.382;7.074;2023-08-12T12:25:16;2.33;;;1.10;;
80936;SDS011;70395;51.382;7.074;2023-08-12T12:27:45;1.20;;;1.07;;
80936;SDS011;70395;51.382;7.074;2023-08-12T12:30:12;1.10;;;0.80;;
80936;SDS011;70395;51.382;7.074;2023-08-12T12:32:40;1.00;;;0.80;;
80936;SDS011;70395;51.382;7.074;2023-08-12T12:35:07;1.40;;;1.03;;
80936;SDS011;70395;51.382;7.074;2023-08-12T12:37:33;1.83;;;0.90;;
80936;SDS011;70395;51.382;7.074;2023-08-12T12:40:00;1.17;;;1.07;;
80936;SDS011;70395;51.382;7.074;2023-08-12T12:42:26;1.10;;;0.83;;
80936;SDS011;70395;51.382;7.074;2023-08-12T12:44:51;1.50;;;0.83;;
80936;SDS011;70395;51.382;7.074;2023-08-12T12:47:17;2.10;;;0.87;;
80936;SDS011;70395;51.382;7.074;2023-08-12T12:49:44;1.40;;;0.90;;
80936;SDS011;70395;51.382;7.074;2023-08-12T12:52:10;1.77;;;1.30;;
80936;SDS011;70395;51.382;7.074;2023-08-12T12:54:36;2.00;;;1.80;;
80936;SDS011;70395;51.382;7.074;2023-08-12T12:57:02;2.10;;;1.90;;
80936;SDS011;70395;51.382;7.074;2023-08-12T12:59:29;3.67;;;1.93;;
80936;SDS011;70395;51.382;7.074;2023-08-12T13:01:55;2.33;;;1.90;;
80936;SDS011;70395;51.382;7.074;2023-08-12T13:04:22;2.13;;;1.93;;
80936;SDS011;70395;51.382;7.074;2023-08-12T13:06:48;2.73;;;2.40;;
80936;SDS011;70395;51.382;7.074;2023-08-12T13:09:14;3.10;;;2.33;;
80936;SDS011;70395;51.382;7.074;2023-08-12T13:11:39;2.80;;;2.47;;
80936;SDS011;70395;51.382;7.074;2023-08-12T13:14:05;3.23;;;2.93;;
80936;SDS011;70395;51.382;7.074;2023-08-12T13:16:31;3.90;;;3.47;;
80936;SDS011;70395;51.382;7.074;2023-08-12T13:18:57;3.50;;;3.20;;
80936;SDS011;70395;51.382;7.074;2023-08-12T13:21:24;5.20;;;3.17;;
80936;SDS011;70395;51.382;7.074;2023-08-12T13:23:51;5.37;;;3.00;;
80936;SDS011;70395;51.382;7.074;2023-08-12T13:26:20;3.10;;;2.90;;
80936;SDS011;70395;51.382;7.074;2023-08-12T13:28:46;5.20;;;2.80;;
80936;SDS011;70395;51.382;7.074;2023-08-12T13:31:12;4.17;;;3.87;;
80936;SDS011;70395;51.382;7.074;2023-08-12T13:33:39;3.60;;;3.37;;
80936;SDS011;70395;51.382;7.074;2023-08-12T13:36:05;2.87;;;2.67;;
80936;SDS011;70395;51.382;7.074;2023-08-12T13:38:30;3.10;;;2.90;;
80936;SDS011;70395;51.382;7.074;2023-08-12T13:40:56;3.90;;;3.50;;
80936;SDS011;70395;51.382;7.074;2023-08-12T13:43:22;3.70;;;3.40;;
80936;SDS011;70395;51.382;7.074;2023-08-12T13:45:48;3.80;;;3.50;;
80936;SDS011;70395;51.382;7.074;2023-08-12T13:48:13;3.10;;;2.90;;
80936;SDS011;70395;51.382;7.074;2023-08-12T13:50:40;4.33;;;3.93;;
80936;SDS011;70395;51.382;7.074;2023-08-12T13:53:06;3.57;;;3.27;;
80936;SDS011;70395;51.382;7.074;2023-08-12T13:55:32;4.20;;;3.90;;
80936;SDS011;70395;51.382;7.074;2023-08-12T13:57:57;4.63;;;4.23;;
80936;SDS011;70395;51.382;7.074;2023-08-12T14:00:23;3.70;;;3.40;;
80936;SDS011;70395;51.382;7.074;2023-08-12T14:02:50;3.57;;;3.27;;
80936;SDS011;70395;51.382;7.074;2023-08-12T14:05:16;2.70;;;2.37;;
80936;SDS011;70395;51.382;7.074;2023-08-12T14:07:42;3.53;;;2.43;;
80936;SDS011;70395;51.382;7.074;2023-08-12T14:10:08;2.53;;;2.33;;
80936;SDS011;70395;51.382;7.074;2023-08-12T14:12:34;2.97;;;2.77;;
80936;SDS011;70395;51.382;7.074;2023-08-12T14:15:00;2.90;;;2.60;;
80936;SDS011;70395;51.382;7.074;2023-08-12T14:17:26;4.10;;;2.87;;
80936;SDS011;70395;51.382;7.074;2023-08-12T14:19:52;2.90;;;2.60;;
80936;SDS011;70395;51.382;7.074;2023-08-12T14:22:20;4.10;;;2.90;;
80936;SDS011;70395;51.382;7.074;2023-08-12T14:24:47;3.70;;;2.50;;
80936;SDS011;70395;51.382;7.074;2023-08-12T14:27:13;2.70;;;2.20;;
80936;SDS011;70395;51.382;7.074;2023-08-12T14:29:42;2.50;;;2.30;;
80936;SDS011;70395;51.382;7.074;2023-08-12T14:32:09;2.57;;;2.37;;
80936;SDS011;70395;51.382;7.074;2023-08-12T14:34:35;3.17;;;2.87;;
80936;SDS011;70395;51.382;7.074;2023-08-12T14:37:02;2.70;;;2.40;;
80936;SDS011;70395;51.382;7.074;2023-08-12T14:39:28;3.40;;;3.10;;
80936;SDS011;70395;51.382;7.074;2023-08-12T14:41:54;3.70;;;3.40;;
80936;SDS011;70395;51.382;7.074;2023-08-12T14:44:20;3.30;;;3.07;;
80936;SDS011;70395;51.382;7.074;2023-08-12T14:46:45;3.90;;;3.43;;
80936;SDS011;70395;51.382;7.074;2023-08-12T14:49:11;5.43;;;3.67;;
80936;SDS011;70395;51.382;7.074;2023-08-12T14:51:37;3.47;;;3.17;;
80936;SDS011;70395;51.382;7.074;2023-08-12T14:54:03;2.93;;;2.73;;
80936;SDS011;70395;51.382;7.074;2023-08-12T14:56:29;3.20;;;2.90;;
80936;SDS011;70395;51.382;7.074;2023-08-12T14:58:55;3.73;;;2.83;;
80936;SDS011;70395;51.382;7.074;2023-08-12T15:01:20;2.87;;;2.67;;
80936;SDS011;70395;51.382;7.074;2023-08-12T15:03:48;3.20;;;2.67;;